Time;durP1;ratioP1;P1;durP2;ratioP2;P2;SDS_P1;SDS_P2;PMS_P1;PMS_P2;Temp;Humidity;BMP_temperature;BMP_pressure;BME280_temperature;BME280_humidity;BME280_pressure;Samples;Min_cycle;Max_cycle;Signal;HPM_P1;HPM_P2
2023/05/09 00:02:06;;;;;;;14.10;11.25;;;;;;;13.88;49.20;95797.69;4926428;28;20054;-78
2023/05/09 00:04:32;;;;;;;13.85;11.23;;;;;;;13.78;49.22;95790.00;4937223;28;20026;-78
2023/05/09 00:06:58;;;;;;;15.98;11.75;;;;;;;13.66;49.44;95795.88;4953922;28;20041;-78
2023/05/09 00:09:24;;;;;;;17.48;11.27;;;;;;;13.60;49.13;95793.97;4953722;28;20436;-78
2023/05/09 00:11:49;;;;;;;14.32;10.73;;;;;;;13.53;49.08;95790.44;4954985;28;20090;-78
2023/05/09 00:14:17;;;;;;;16.42;11.90;;;;;;;13.48;48.88;95790.16;4953753;28;20065;-78
2023/05/09 00:16:43;;;;;;;13.00;10.25;;;;;;;13.54;49.07;95784.06;4937201;28;20043;-78
2023/05/09 00:19:08;;;;;;;13.73;11.10;;;;;;;13.51;49.49;95787.09;4954352;28;20031;-78
2023/05/09 00:21:34;;;;;;;15.20;11.32;;;;;;;13.33;49.81;95780.38;4937103;28;20145;-78
2023/05/09 00:24:00;;;;;;;14.55;11.65;;;;;;;13.29;50.21;95782.59;4951577;28;20050;-78
2023/05/09 00:26:25;;;;;;;13.45;11.60;;;;;;;13.38;49.78;95779.78;4951595;28;20052;-78
2023/05/09 00:28:51;;;;;;;14.50;11.90;;;;;;;13.43;50.34;95777.38;4934345;28;20054;-78
2023/05/09 00:31:16;;;;;;;15.52;11.57;;;;;;;13.50;50.29;95778.25;4953938;28;20039;-78
2023/05/09 00:33:42;;;;;;;13.95;11.13;;;;;;;13.56;50.02;95766.78;4952971;28;20035;-78
2023/05/09 00:36:07;;;;;;;17.80;12.93;;;;;;;13.64;49.99;95767.66;4954055;28;20425;-78
2023/05/09 00:38:33;;;;;;;13.80;11.07;;;;;;;13.72;49.93;95759.50;4951797;28;20045;-78
2023/05/09 00:40:58;;;;;;;14.23;11.52;;;;;;;13.76;49.65;95760.75;4954704;28;20039;-78
2023/05/09 00:43:23;;;;;;;15.65;11.95;;;;;;;13.83;49.77;95763.47;4954546;28;20046;-78
2023/05/09 00:45:49;;;;;;;16.30;11.82;;;;;;;13.83;49.80;95761.63;4954511;28;20047;-78
2023/05/09 00:48:15;;;;;;;13.82;11.73;;;;;;;13.91;49.70;95762.53;4937571;28;20031;-78
2023/05/09 00:50:40;;;;;;;12.98;11.55;;;;;;;13.94;49.56;95764.84;4934213;28;20065;-78
2023/05/09 00:53:07;;;;;;;13.85;12.05;;;;;;;13.97;49.60;95750.22;4932011;28;20042;-78
2023/05/09 00:55:32;;;;;;;12.73;11.32;;;;;;;14.04;49.72;95745.75;4945541;28;20113;-78
2023/05/09 00:57:57;;;;;;;13.57;11.32;;;;;;;14.11;49.28;95748.44;4933760;28;20070;-78
2023/05/09 01:00:23;;;;;;;18.02;11.80;;;;;;;14.07;49.52;95735.47;4916159;28;20047;-78
2023/05/09 01:02:51;;;;;;;14.45;11.90;;;;;;;14.10;49.22;95742.25;4925477;23;20051;-74
2023/05/09 01:05:17;;;;;;;14.82;12.30;;;;;;;14.12;49.11;95732.19;4920234;28;20439;-74
2023/05/09 01:08:13;;;;;;;12.70;11.27;;;;;;;13.97;49.69;95737.66;4913071;28;20027;-74
2023/05/09 01:11:12;;;;;;;14.35;11.18;;;;;;;13.92;49.82;95722.22;4911412;28;20519;-74
2023/05/09 01:13:43;;;;;;;15.13;11.65;;;;;;;13.98;49.67;95720.59;4926843;28;20039;-76
2023/05/09 01:16:31;;;;;;;15.98;12.20;;;;;;;14.04;49.40;95721.66;4912265;28;20491;-76
2023/05/09 01:18:59;;;;;;;13.63;11.50;;;;;;;14.07;49.00;95716.72;4928309;28;20094;-76
2023/05/09 01:21:28;;;;;;;14.63;11.35;;;;;;;14.06;49.09;95709.72;4950675;28;20358;-75
2023/05/09 01:24:15;;;;;;;14.82;11.30;;;;;;;13.94;49.05;95705.97;4933398;28;20097;-75
2023/05/09 01:26:59;;;;;;;16.38;11.95;;;;;;;13.81;49.44;95706.66;4938110;28;20065;-74
2023/05/09 01:29:34;;;;;;;13.82;11.35;;;;;;;13.74;49.40;95703.97;4946042;28;20051;-75
2023/05/09 01:32:02;;;;;;;14.52;11.07;;;;;;;13.74;49.67;95697.75;4921792;28;20435;-74
2023/05/09 01:34:27;;;;;;;;;;;;;;;13.66;49.72;95694.22;4914992;28;20039;-75
2023/05/09 01:36:58;;;;;;;15.50;12.27;;;;;;;13.55;49.62;95700.09;4937530;28;19953;-75
2023/05/09 01:39:23;;;;;;;17.65;12.65;;;;;;;13.60;50.41;95700.34;4912964;28;20582;-74
2023/05/09 01:41:49;;;;;;;14.40;11.70;;;;;;;13.52;50.55;95708.50;4929302;28;20091;-74
2023/05/09 01:44:14;;;;;;;15.73;11.75;;;;;;;13.57;50.43;95704.22;4927734;28;20035;-74
2023/05/09 01:46:40;;;;;;;15.43;12.15;;;;;;;13.71;50.29;95701.66;4924985;28;20054;-75
2023/05/09 01:49:06;;;;;;;16.55;12.23;;;;;;;13.68;50.25;95700.22;4912386;28;20045;-74
2023/05/09 01:51:32;;;;;;;17.90;13.02;;;;;;;13.74;50.28;95698.59;4954823;28;20042;-74
2023/05/09 01:53:57;;;;;;;15.52;12.25;;;;;;;13.81;50.37;95696.78;4931326;28;20069;-75
2023/05/09 01:56:22;;;;;;;15.88;12.40;;;;;;;13.89;49.97;95697.66;4924788;28;20043;-74
2023/05/09 01:58:48;;;;;;;14.98;12.52;;;;;;;13.88;50.17;95688.84;4932687;28;20038;-74
2023/05/09 02:01:14;;;;;;;16.02;11.23;;;;;;;13.98;49.72;95703.69;4904871;28;20031;-74
2023/05/09 02:03:39;;;;;;;15.93;12.70;;;;;;;13.81;50.20;95695.97;4940017;28;20247;-74
2023/05/09 02:06:05;;;;;;;15.68;12.23;;;;;;;13.79;50.15;95695.31;4937657;28;20058;-74
2023/05/09 02:08:30;;;;;;;14.77;12.20;;;;;;;13.86;50.12;95706.91;4942820;28;20502;-74
2023/05/09 02:10:56;;;;;;;18.00;13.88;;;;;;;13.85;50.25;95694.53;4937745;28;20261;-74
2023/05/09 02:13:21;;;;;;;14.77;12.18;;;;;;;13.97;49.93;95699.38;4948254;28;20064;-74
2023/05/09 02:15:47;;;;;;;18.45;12.57;;;;;;;13.98;50.14;95699.19;4961633;28;20053;-75
2023/05/09 02:18:12;;;;;;;17.08;12.30;;;;;;;14.02;49.80;95699.59;4932147;28;20507;-74
2023/05/09 02:20:38;;;;;;;15.18;12.68;;;;;;;13.90;50.20;95686.78;4976213;28;20035;-74
2023/05/09 02:23:04;;;;;;;12.75;11.15;;;;;;;14.07;50.01;95689.13;4949848;28;20558;-75
2023/05/09 02:25:29;;;;;;;14.43;12.13;;;;;;;14.12;49.79;95689.38;4949967;28;20041;-74
2023/05/09 02:27:55;;;;;;;15.20;11.77;;;;;;;14.05;49.58;95678.59;4954832;28;20445;-74
2023/05/09 02:30:24;;;;;;;14.75;11.75;;;;;;;14.09;49.59;95684.41;4955335;28;20042;-74
2023/05/09 02:32:49;;;;;;;;;;;;;;;14.08;49.61;95688.13;4957329;28;20121;-74
2023/05/09 02:35:15;;;;;;;16.17;12.57;;;;;;;14.04;49.82;95674.28;4955613;28;20007;-74
2023/05/09 02:37:40;;;;;;;12.80;10.77;;;;;;;14.19;49.55;95674.16;4937960;28;20450;-74
2023/05/09 02:40:08;;;;;;;13.77;11.50;;;;;;;14.23;49.52;95677.25;4952090;28;20023;-74
2023/05/09 02:42:33;;;;;;;13.63;10.73;;;;;;;14.21;49.32;95671.25;4975250;28;20518;-74
2023/05/09 02:44:59;;;;;;;14.80;10.95;;;;;;;14.15;49.69;95675.59;4962665;28;20065;-74
2023/05/09 02:47:25;;;;;;;15.55;11.30;;;;;;;14.00;50.22;95667.69;4976499;28;20038;-74
2023/05/09 02:49:50;;;;;;;15.60;12.02;;;;;;;14.04;49.88;95668.13;4976829;28;20035;-74
2023/05/09 02:52:15;;;;;;;15.10;11.30;;;;;;;14.00;50.11;95669.53;4964046;28;20834;-74
2023/05/09 02:54:41;;;;;;;16.27;11.25;;;;;;;14.08;49.69;95656.78;4952477;28;20030;-74
2023/05/09 02:57:06;;;;;;;14.48;10.80;;;;;;;14.06;49.75;95661.53;4950719;28;20547;-74
2023/05/09 02:59:32;;;;;;;17.02;10.85;;;;;;;14.06;49.63;95663.38;4975947;28;20203;-73
2023/05/09 03:01:57;;;;;;;13.52;10.27;;;;;;;14.03;49.64;95658.41;4948282;28;20042;-74
2023/05/09 03:04:24;;;;;;;15.02;12.05;;;;;;;13.90;50.07;95662.69;4949194;28;20050;-74
2023/05/09 03:06:50;;;;;;;14.23;11.23;;;;;;;14.11;49.73;95647.53;4953865;28;20034;-74
2023/05/09 03:09:15;;;;;;;14.13;11.73;;;;;;;14.17;49.75;95648.59;4951537;28;20043;-74
2023/05/09 03:11:41;;;;;;;14.90;11.65;;;;;;;14.07;49.68;95640.94;4919462;28;20034;-74
2023/05/09 03:14:07;;;;;;;16.90;11.65;;;;;;;14.18;49.51;95639.56;4962591;28;20699;-74
2023/05/09 03:16:33;;;;;;;16.80;11.63;;;;;;;13.79;49.44;95641.81;4964860;28;20026;-75
2023/05/09 03:18:58;;;;;;;15.00;11.38;;;;;;;14.03;49.67;95647.72;4966192;28;20293;-74
2023/05/09 03:21:24;;;;;;;14.15;12.43;;;;;;;13.68;50.26;95644.03;4974375;28;20038;-74
2023/05/09 03:23:49;;;;;;;14.88;11.63;;;;;;;13.78;49.54;95646.34;4949469;28;20487;-74
2023/05/09 03:26:14;;;;;;;15.80;12.57;;;;;;;13.79;50.21;95649.84;4931440;28;20049;-74
2023/05/09 03:28:40;;;;;;;17.27;11.90;;;;;;;13.97;49.69;95641.31;4947688;28;20546;-74
2023/05/09 03:31:05;;;;;;;14.98;12.00;;;;;;;14.00;49.89;95645.47;4949477;28;20045;-74
2023/05/09 03:33:31;;;;;;;17.10;11.48;;;;;;;14.17;49.33;95651.25;4948170;28;20050;-74
2023/05/09 03:35:56;;;;;;;16.48;11.95;;;;;;;14.06;49.82;95641.97;4972990;28;20030;-74
2023/05/09 03:38:23;;;;;;;14.88;12.15;;;;;;;14.18;49.52;95640.34;4973263;28;20481;-74
2023/05/09 03:40:49;;;;;;;14.43;11.40;;;;;;;14.15;49.46;95631.91;4936796;28;20042;-74
2023/05/09 03:43:15;;;;;;;14.13;11.30;;;;;;;14.26;49.22;95634.00;4966183;28;20038;-74
2023/05/09 03:45:40;;;;;;;13.65;11.27;;;;;;;14.21;49.52;95623.91;4975461;28;20042;-74
2023/05/09 03:48:08;;;;;;;18.52;12.10;;;;;;;14.21;49.67;95621.22;4951066;28;20038;-74
2023/05/09 03:50:34;;;;;;;14.75;10.88;;;;;;;14.26;49.23;95614.44;4968543;28;20130;-74
2023/05/09 03:52:59;;;;;;;12.40;11.10;;;;;;;14.10;49.32;95613.78;4972354;28;20026;-74
2023/05/09 03:55:25;;;;;;;15.38;11.48;;;;;;;14.15;49.42;95611.34;4971873;28;20415;-74
2023/05/09 03:57:50;;;;;;;16.33;10.52;;;;;;;14.12;49.31;95609.06;4967137;28;20519;-75
2023/05/09 04:00:16;;;;;;;12.32;10.57;;;;;;;14.10;49.79;95607.59;4974068;28;20452;-74
2023/05/09 04:02:42;;;;;;;14.88;11.38;;;;;;;14.16;49.52;95607.63;4950104;28;20061;-74
2023/05/09 04:05:07;;;;;;;16.17;11.85;;;;;;;14.00;49.62;95608.00;4964454;28;20069;-74
2023/05/09 04:07:33;;;;;;;17.63;12.65;;;;;;;13.69;50.86;95613.56;4917455;28;20026;-74
2023/05/09 04:09:58;;;;;;;12.23;10.32;;;;;;;13.82;50.31;95614.66;4948451;28;20042;-74
2023/05/09 04:12:24;;;;;;;14.43;10.02;;;;;;;13.78;50.04;95614.25;4946993;28;20041;-74
2023/05/09 04:14:50;;;;;;;17.00;12.77;;;;;;;13.79;50.57;95618.56;4967865;28;20097;-74
2023/05/09 04:17:16;;;;;;;17.13;12.52;;;;;;;13.77;50.70;95617.13;4966518;28;20042;-74
2023/05/09 04:19:42;;;;;;;16.60;11.98;;;;;;;13.77;50.38;95617.13;4970871;28;20430;-74
2023/05/09 04:22:07;;;;;;;16.08;12.57;;;;;;;13.91;50.34;95618.84;4945761;28;20042;-74
2023/05/09 04:24:33;;;;;;;14.63;12.13;;;;;;;14.07;50.12;95623.03;4947163;28;20267;-74
2023/05/09 04:26:58;;;;;;;16.77;12.23;;;;;;;14.20;49.71;95618.75;4944657;28;20027;-74
2023/05/09 04:29:24;;;;;;;15.27;11.77;;;;;;;14.23;49.60;95620.19;4943773;28;20039;-74
2023/05/09 04:31:50;;;;;;;17.30;13.88;;;;;;;14.12;49.84;95613.56;4965808;28;20070;-74
2023/05/09 04:34:15;;;;;;;17.17;11.80;;;;;;;14.18;49.91;95616.25;4965150;28;20050;-74
2023/05/09 04:36:41;;;;;;;15.00;11.23;;;;;;;14.11;50.01;95611.94;4967896;28;20407;-74
2023/05/09 04:39:09;;;;;;;17.55;11.52;;;;;;;14.06;49.16;95607.16;4972172;28;20026;-74
2023/05/09 04:41:35;;;;;;;15.73;12.40;;;;;;;14.09;50.14;95604.09;4970407;28;20034;-75
2023/05/09 04:44:00;;;;;;;17.33;13.20;;;;;;;14.40;49.39;95600.06;4972539;28;20034;-74
2023/05/09 04:46:26;;;;;;;19.67;14.23;;;;;;;14.18;49.55;95592.16;4968141;28;20038;-74
2023/05/09 04:48:52;;;;;;;15.82;13.40;;;;;;;14.01;49.88;95601.59;4969141;28;20150;-75
2023/05/09 04:51:17;;;;;;;15.75;12.45;;;;;;;13.99;49.71;95598.28;4943504;28;20031;-74
2023/05/09 04:53:43;;;;;;;15.90;13.32;;;;;;;14.13;49.46;95588.44;4971938;28;20038;-74
2023/05/09 04:56:09;;;;;;;16.05;12.82;;;;;;;14.22;49.46;95592.59;4948805;28;20058;-74
2023/05/09 04:58:37;;;;;;;15.40;13.02;;;;;;;14.17;50.00;95595.88;4943487;28;20043;-75
2023/05/09 05:01:04;;;;;;;15.98;12.88;;;;;;;14.26;49.55;95591.19;4972083;28;20639;-74
2023/05/09 05:03:29;;;;;;;18.88;13.55;;;;;;;14.32;49.02;95584.19;4942898;28;20521;-74
2023/05/09 05:05:54;;;;;;;21.30;13.63;;;;;;;14.50;49.39;95582.75;4971353;28;20046;-74
2023/05/09 05:08:20;;;;;;;18.95;13.32;;;;;;;14.37;49.62;95595.09;4949319;28;20213;-74
2023/05/09 05:10:46;;;;;;;17.17;14.13;;;;;;;14.58;49.09;95590.59;4972205;28;20062;-74
2023/05/09 05:13:11;;;;;;;14.13;11.18;;;;;;;14.53;49.27;95590.41;4972406;28;20033;-74
2023/05/09 05:15:37;;;;;;;17.50;14.25;;;;;;;14.71;48.96;95585.25;4949755;28;20041;-74
2023/05/09 05:18:02;;;;;;;17.83;12.45;;;;;;;14.80;48.93;95582.41;4973082;28;20044;-74
2023/05/09 05:20:28;;;;;;;14.98;12.50;;;;;;;15.06;48.47;95578.09;4970153;28;20462;-74
2023/05/09 05:22:53;;;;;;;17.30;13.27;;;;;;;15.25;48.36;95579.06;4974627;28;20846;-74
2023/05/09 05:25:19;;;;;;;15.90;13.65;;;;;;;15.19;48.41;95582.59;4975030;28;20046;-74
2023/05/09 05:27:45;;;;;;;14.45;12.15;;;;;;;15.36;47.66;95570.41;4975319;28;20037;-74
2023/05/09 05:30:11;;;;;;;15.85;12.82;;;;;;;15.59;47.43;95569.13;4975704;28;20451;-74
2023/05/09 05:32:36;;;;;;;14.43;11.77;;;;;;;15.48;46.61;95567.91;4973714;28;20058;-75
2023/05/09 05:35:03;;;;;;;14.68;11.55;;;;;;;15.65;46.73;95570.16;4974758;28;20065;-75
2023/05/09 05:37:29;;;;;;;14.18;11.25;;;;;;;15.74;45.90;95560.00;4968780;28;20030;-74
2023/05/09 05:39:54;;;;;;;17.52;13.40;;;;;;;15.61;44.95;95563.56;4940344;28;20033;-75
2023/05/09 05:42:20;;;;;;;12.15;9.82;;;;;;;15.64;45.11;95552.41;4975778;28;20053;-74
2023/05/09 05:44:45;;;;;;;13.82;10.68;;;;;;;15.92;45.62;95561.16;4975418;28;20046;-75
2023/05/09 05:47:10;;;;;;;12.35;11.05;;;;;;;16.24;45.79;95561.19;4953600;28;20046;-75
2023/05/09 05:49:36;;;;;;;15.63;12.50;;;;;;;16.26;44.96;95559.94;4954609;28;20034;-75
2023/05/09 05:52:01;;;;;;;16.33;11.60;;;;;;;16.10;45.58;95565.81;4974623;28;20069;-75
2023/05/09 05:54:27;;;;;;;15.60;12.55;;;;;;;16.01;45.52;95557.19;4965025;28;20105;-75
2023/05/09 05:56:52;;;;;;;20.60;13.68;;;;;;;15.39;46.89;95563.78;4953232;28;20045;-75
2023/05/09 05:59:18;;;;;;;21.58;15.38;;;;;;;14.70;48.32;95562.19;4972074;28;20491;-75
2023/05/09 06:01:43;;;;;;;16.77;13.48;;;;;;;15.70;46.36;95553.38;4950031;28;20162;-75
2023/05/09 06:04:08;;;;;;;17.13;14.45;;;;;;;15.68;46.32;95553.63;4972920;28;20054;-74
2023/05/09 06:06:34;;;;;;;19.17;14.50;;;;;;;15.69;46.24;95554.44;4974421;28;20038;-75
2023/05/09 06:08:59;;;;;;;21.17;13.32;;;;;;;15.92;45.95;95555.78;4973459;28;20038;-74
2023/05/09 06:11:25;;;;;;;14.73;12.23;;;;;;;15.73;46.10;95543.06;4951711;28;20041;-75
2023/05/09 06:13:50;;;;;;;20.25;14.90;;;;;;;15.96;45.55;95552.47;4977251;28;20048;-74
2023/05/09 06:16:16;;;;;;;21.23;16.77;;;;;;;15.16;46.82;95559.69;4953734;28;20041;-75
2023/05/09 06:18:41;;;;;;;18.65;14.80;;;;;;;15.36;47.04;95548.09;4977280;28;20046;-75
2023/05/09 06:21:06;;;;;;;19.50;14.80;;;;;;;15.45;46.73;95546.84;4968305;28;20059;-74
2023/05/09 06:23:32;;;;;;;18.00;15.02;;;;;;;15.34;47.03;95544.81;4978198;28;20411;-75
2023/05/09 06:25:57;;;;;;;22.13;15.80;;;;;;;15.16;47.43;95548.16;4970872;28;20030;-75
2023/05/09 06:28:23;;;;;;;17.02;13.77;;;;;;;15.40;46.81;95543.16;4973305;28;20637;-75
2023/05/09 06:30:48;;;;;;;18.90;16.30;;;;;;;14.70;48.60;95556.84;4950835;28;20042;-74
2023/05/09 06:33:14;;;;;;;18.83;13.52;;;;;;;14.93;48.29;95544.06;4973713;28;20034;-74
2023/05/09 06:35:39;;;;;;;17.42;14.32;;;;;;;14.85;48.43;95537.88;4971779;28;20130;-75
2023/05/09 06:38:05;;;;;;;16.65;12.80;;;;;;;15.16;47.75;95535.56;4973500;28;20038;-75
2023/05/09 06:40:31;;;;;;;17.90;13.23;;;;;;;15.33;47.54;95535.13;4971830;28;20545;-75
2023/05/09 06:42:56;;;;;;;17.02;13.77;;;;;;;14.58;48.42;95535.19;4974126;28;20037;-74
2023/05/09 06:45:21;;;;;;;18.88;15.85;;;;;;;14.83;48.33;95528.41;4973993;28;20050;-74
2023/05/09 06:47:47;;;;;;;20.05;15.52;;;;;;;15.01;47.99;95532.28;4971765;28;20042;-74
2023/05/09 06:50:12;;;;;;;16.50;13.93;;;;;;;14.85;48.40;95527.16;4970965;28;20038;-74
2023/05/09 06:52:38;;;;;;;16.60;14.52;;;;;;;14.96;48.11;95522.22;4973707;28;20522;-74
2023/05/09 06:55:03;;;;;;;20.27;15.07;;;;;;;15.05;48.09;95515.59;4973512;28;20049;-74
2023/05/09 06:57:29;;;;;;;20.08;15.20;;;;;;;15.41;47.50;95515.28;4972425;28;20712;-74
2023/05/09 06:59:54;;;;;;;20.50;15.73;;;;;;;15.70;46.89;95510.44;4946576;28;20046;-74
2023/05/09 07:02:20;;;;;;;23.33;17.35;;;;;;;15.74;46.51;95501.78;4966755;28;20042;-75
2023/05/09 07:04:45;;;;;;;21.00;16.20;;;;;;;15.68;46.46;95496.44;4969250;28;20534;-74
2023/05/09 07:07:11;;;;;;;23.67;18.98;;;;;;;15.67;46.34;95500.16;4973498;28;20402;-71
2023/05/09 07:09:36;;;;;;;21.83;16.33;;;;;;;15.90;46.24;95496.94;4965874;28;20054;-72
2023/05/09 07:12:01;;;;;;;23.58;19.40;;;;;;;15.02;47.67;95504.47;4965532;28;20403;-72
2023/05/09 07:14:27;;;;;;;20.75;16.45;;;;;;;15.30;47.57;95493.44;4961965;28;20519;-72
2023/05/09 07:16:52;;;;;;;20.50;15.98;;;;;;;15.39;47.26;95493.22;4958292;28;20049;-72
2023/05/09 07:19:18;;;;;;;26.85;18.17;;;;;;;14.79;47.99;95489.66;4951679;28;20030;-72
2023/05/09 07:21:43;;;;;;;19.52;15.27;;;;;;;14.70;47.92;95481.81;4963977;28;20050;-72
2023/05/09 07:24:09;;;;;;;21.42;16.55;;;;;;;15.16;47.78;95483.81;4969612;28;20034;-72
2023/05/09 07:26:35;;;;;;;16.23;13.70;;;;;;;14.95;47.64;95483.03;4967705;28;20054;-74
2023/05/09 07:29:00;;;;;;;16.85;14.80;;;;;;;15.19;47.65;95470.81;4971592;28;20391;-75
2023/05/09 07:31:25;;;;;;;22.08;16.52;;;;;;;15.50;47.37;95479.13;4972117;28;20031;-74
2023/05/09 07:33:51;;;;;;;26.90;17.85;;;;;;;15.55;47.05;95465.09;4970801;28;20042;-74
2023/05/09 07:36:16;;;;;;;19.42;15.48;;;;;;;15.97;46.12;95468.19;4968053;28;20080;-74
2023/05/09 07:38:42;;;;;;;20.60;14.25;;;;;;;15.95;46.06;95469.47;4963283;28;20069;-74
2023/05/09 07:41:07;;;;;;;17.02;14.48;;;;;;;16.17;45.90;95469.09;4971292;28;20303;-74
2023/05/09 07:43:32;;;;;;;19.10;14.20;;;;;;;16.20;45.55;95465.97;4944077;28;20057;-74
2023/05/09 07:45:58;;;;;;;19.33;14.30;;;;;;;16.11;45.29;95468.94;4972365;28;20116;-74
2023/05/09 07:48:23;;;;;;;17.00;13.93;;;;;;;15.87;46.08;95473.22;4970583;28;20030;-75
2023/05/09 07:50:49;;;;;;;17.67;13.80;;;;;;;15.91;45.79;95463.69;4970643;28;20146;-74
2023/05/09 07:53:15;;;;;;;19.73;14.90;;;;;;;15.24;47.29;95467.50;4971250;28;20041;-74
2023/05/09 07:55:40;;;;;;;15.43;13.27;;;;;;;15.24;47.63;95460.25;4961673;28;20093;-74
2023/05/09 07:58:05;;;;;;;17.60;13.07;;;;;;;15.72;46.89;95446.66;4970692;28;20042;-74
2023/05/09 08:00:31;;;;;;;14.65;12.05;;;;;;;15.94;46.52;95444.47;4972348;28;20045;-74
2023/05/09 08:02:56;;;;;;;19.42;13.70;;;;;;;16.11;46.11;95446.63;4960792;28;20075;-75
2023/05/09 08:05:22;;;;;;;16.80;12.55;;;;;;;16.18;45.77;95449.28;4971245;28;20042;-74
2023/05/09 08:07:47;;;;;;;14.88;12.85;;;;;;;16.25;44.55;95444.69;4974033;28;20311;-75
2023/05/09 08:10:12;;;;;;;19.30;13.38;;;;;;;16.52;44.95;95439.09;4972208;28;20538;-75
2023/05/09 08:12:38;;;;;;;19.42;13.98;;;;;;;16.44;44.09;95437.53;4948581;28;20038;-75
2023/05/09 08:15:04;;;;;;;16.70;13.23;;;;;;;16.60;44.40;95433.47;4945919;28;20174;-75
2023/05/09 08:17:29;;;;;;;19.48;16.63;;;;;;;15.61;45.92;95429.41;4947923;28;20038;-75
2023/05/09 08:19:55;;;;;;;16.85;13.27;;;;;;;15.99;46.59;95425.03;4969234;28;20624;-75
2023/05/09 08:22:20;;;;;;;20.27;14.50;;;;;;;16.29;45.19;95420.88;4970105;28;20116;-67
2023/05/09 08:24:46;;;;;;;19.35;13.60;;;;;;;16.46;44.00;95415.81;4971664;28;20117;-67
2023/05/09 08:27:12;;;;;;;18.30;13.27;;;;;;;16.96;45.06;95416.78;4974541;28;20338;-66
2023/05/09 08:29:41;;;;;;;17.27;13.52;;;;;;;17.37;43.36;95414.47;4971760;28;20396;-74
2023/05/09 08:32:07;;;;;;;16.83;12.90;;;;;;;17.48;42.50;95413.69;4966899;28;20466;-74
2023/05/09 08:34:33;;;;;;;17.98;13.10;;;;;;;17.63;41.81;95415.97;4931834;28;20073;-74
2023/05/09 08:37:02;;;;;;;21.25;15.20;;;;;;;16.75;43.80;95411.59;4948300;28;20133;-73
2023/05/09 08:39:28;;;;;;;19.13;13.73;;;;;;;17.26;42.66;95407.94;4966768;28;20034;-74
2023/05/09 08:41:58;;;;;;;18.73;14.98;;;;;;;17.16;42.62;95400.41;4966702;28;20049;-74
2023/05/09 08:44:24;;;;;;;17.67;13.90;;;;;;;17.24;42.95;95400.09;4974850;28;20034;-73
2023/05/09 08:46:51;;;;;;;17.23;13.73;;;;;;;17.61;42.35;95415.38;4972305;28;20141;-73
2023/05/09 08:49:16;;;;;;;16.08;12.48;;;;;;;17.95;40.39;95397.94;4947158;28;20388;-73
2023/05/09 08:51:42;;;;;;;18.90;12.63;;;;;;;18.17;41.26;95401.75;4968990;28;20046;-73
2023/05/09 08:54:07;;;;;;;17.33;12.68;;;;;;;18.21;40.95;95394.00;4963455;28;20049;-73
2023/05/09 08:56:33;;;;;;;17.13;14.25;;;;;;;18.56;40.52;95393.19;4966479;28;20057;-73
2023/05/09 08:58:59;;;;;;;17.48;13.18;;;;;;;17.83;40.94;95400.56;4932172;28;20093;-72
2023/05/09 09:01:25;;;;;;;12.43;10.98;;;;;;;18.31;41.16;95398.81;4974711;28;20038;-73
2023/05/09 09:03:50;;;;;;;13.93;11.70;;;;;;;18.59;40.21;95386.53;4954905;28;20588;-73
2023/05/09 09:06:16;;;;;;;18.40;12.80;;;;;;;17.53;42.74;95388.78;4939241;28;20439;-73
2023/05/09 09:08:42;;;;;;;19.05;13.43;;;;;;;18.06;41.07;95381.00;4965431;28;20512;-73
2023/05/09 09:11:09;;;;;;;17.90;13.45;;;;;;;18.40;40.96;95378.56;4963677;28;20030;-73
2023/05/09 09:13:35;;;;;;;14.52;11.27;;;;;;;18.69;40.37;95380.56;4945492;28;20479;-73
2023/05/09 09:16:00;;;;;;;20.67;15.65;;;;;;;18.29;39.33;95379.38;4946429;28;20320;-73
2023/05/09 09:18:28;;;;;;;17.00;12.27;;;;;;;18.82;40.17;95369.53;4945784;28;20424;-73
2023/05/09 09:21:00;;;;;;;14.57;11.20;;;;;;;18.92;39.55;95370.81;4960627;28;20034;-72
2023/05/09 09:23:26;;;;;;;13.88;11.52;;;;;;;18.79;39.90;95359.22;4957013;28;20038;-72
2023/05/09 09:26:01;;;;;;;12.25;10.05;;;;;;;19.15;38.73;95356.44;4948079;28;20045;-73
2023/05/09 09:28:27;;;;;;;13.90;11.20;;;;;;;19.32;38.85;95355.72;4948937;28;20207;-73
2023/05/09 09:30:52;;;;;;;19.38;15.30;;;;;;;19.11;38.59;95363.38;4967999;28;20168;-73
2023/05/09 09:33:21;;;;;;;17.35;13.35;;;;;;;18.62;39.07;95359.13;4975081;28;20514;-73
2023/05/09 09:35:48;;;;;;;14.63;10.30;;;;;;;18.77;39.20;95355.94;4969383;28;20438;-73
2023/05/09 09:38:14;;;;;;;13.60;10.80;;;;;;;18.97;38.55;95359.31;4972087;28;20556;-72
2023/05/09 09:40:39;;;;;;;16.00;13.60;;;;;;;18.63;39.53;95362.66;4971398;28;20042;-72
2023/05/09 09:43:08;;;;;;;13.20;9.40;;;;;;;18.63;39.82;95343.78;4947084;28;20043;-74
2023/05/09 09:45:33;;;;;;;12.07;9.40;;;;;;;19.18;39.71;95339.75;4946994;28;20104;-74
2023/05/09 09:47:58;;;;;;;15.95;11.77;;;;;;;19.36;38.35;95339.84;4976433;28;20538;-75
2023/05/09 09:50:24;;;;;;;13.35;10.70;;;;;;;19.33;38.67;95336.59;4953579;28;20042;-75
2023/05/09 09:52:54;;;;;;;20.77;17.50;;;;;;;19.42;37.75;95333.50;4971262;28;20104;-74
2023/05/09 09:55:21;;;;;;;16.40;13.05;;;;;;;19.95;35.82;95327.88;4967224;28;20026;-74
2023/05/09 09:57:47;;;;;;;15.90;13.70;;;;;;;19.83;37.31;95326.13;4970932;28;20496;-73
2023/05/09 10:00:17;;;;;;;12.80;10.45;;;;;;;19.78;37.61;95327.91;4952447;28;20026;-74
2023/05/09 10:02:49;;;;;;;20.50;17.73;;;;;;;19.46;37.52;95318.44;4974754;28;20038;-74
2023/05/09 10:05:28;;;;;;;27.08;19.20;;;;;;;19.23;38.22;95320.16;4953309;28;20073;-74
2023/05/09 10:07:54;;;;;;;13.45;12.00;;;;;;;19.35;37.75;95313.91;4945766;28;20456;-74
2023/05/09 10:10:20;;;;;;;14.77;11.45;;;;;;;19.14;38.21;95321.63;4947570;28;20063;-74
2023/05/09 10:12:46;;;;;;;12.68;10.23;;;;;;;19.17;38.66;95313.03;4929637;28;20205;-75
2023/05/09 10:15:11;;;;;;;12.88;9.80;;;;;;;18.98;38.65;95313.22;4946530;28;20081;-75
2023/05/09 10:17:37;;;;;;;16.83;10.65;;;;;;;18.62;39.28;95304.38;4948619;28;20046;-74
2023/05/09 10:20:04;;;;;;;11.68;10.05;;;;;;;18.61;39.97;95302.75;4945453;28;20054;-75
2023/05/09 10:22:33;;;;;;;14.55;12.40;;;;;;;18.21;39.96;95291.63;4934218;28;20685;-75
2023/05/09 10:25:00;;;;;;;14.10;11.05;;;;;;;17.28;42.06;95293.69;4953817;28;20121;-75
2023/05/09 10:27:26;;;;;;;26.38;20.48;;;;;;;17.91;40.10;95293.38;4940972;28;20038;-75
2023/05/09 10:30:01;;;;;;;23.60;19.60;;;;;;;18.38;39.58;95286.34;4929923;28;20035;-75
2023/05/09 10:32:52;;;;;;;28.98;22.73;;;;;;;19.02;37.91;95287.41;4927156;28;20042;-75
2023/05/09 10:35:18;;;;;;;13.20;10.40;;;;;;;19.87;38.00;95282.38;4965006;28;20430;-74
2023/05/09 10:37:44;;;;;;;31.13;27.40;;;;;;;19.77;36.17;95275.78;4948926;28;20339;-74
2023/05/09 10:40:13;;;;;;;13.30;9.55;;;;;;;20.32;37.33;95273.38;4942952;28;20054;-74
2023/05/09 10:42:40;;;;;;;13.30;9.23;;;;;;;20.07;35.73;95273.81;4946963;28;20038;-74
2023/05/09 10:45:08;;;;;;;17.80;13.48;;;;;;;20.18;35.48;95272.06;4955673;28;20505;-74
2023/05/09 10:47:33;;;;;;;18.27;15.85;;;;;;;20.58;32.97;95279.13;4931358;28;20333;-73
2023/05/09 10:49:59;;;;;;;23.45;16.75;;;;;;;18.33;39.34;95269.25;4947022;28;20628;-74
2023/05/09 10:52:25;;;;;;;11.30;8.73;;;;;;;19.45;37.13;95273.63;4963928;28;20042;-75
2023/05/09 10:54:59;;;;;;;21.63;18.63;;;;;;;19.33;36.19;95258.31;4941513;28;20078;-76
2023/05/09 10:57:26;;;;;;;29.50;24.60;;;;;;;19.51;34.62;95261.03;4966931;28;20503;-72
2023/05/09 10:59:51;;;;;;;25.02;20.55;;;;;;;19.21;36.99;95265.63;4968181;28;20168;-73
2023/05/09 11:02:18;;;;;;;32.72;28.13;;;;;;;19.65;34.98;95246.13;4967148;28;20054;-73
2023/05/09 11:04:44;;;;;;;23.65;19.80;;;;;;;20.17;34.54;95241.56;4970187;28;20054;-72
2023/05/09 11:07:23;;;;;;;29.27;24.38;;;;;;;20.10;35.28;95252.50;4962773;28;20077;-73
2023/05/09 11:10:07;;;;;;;9.88;8.20;;;;;;;19.77;36.11;95250.63;4971417;28;20363;-73
2023/05/09 11:12:32;;;;;;;27.88;22.13;;;;;;;19.86;34.03;95235.69;4967950;28;20042;-73
2023/05/09 11:15:05;;;;;;;18.35;16.13;;;;;;;20.17;36.21;95238.03;4968999;28;20045;-73